createdAt,value
2019-01-15T00:02:06.916Z,1000.78
2019-01-15T00:12:07.972Z,1000.86
2019-01-15T00:22:06.942Z,1000.84
2019-01-15T00:32:06.920Z,1000.89
2019-01-15T00:42:07.046Z,1000.85
2019-01-15T00:52:06.915Z,1001.08
2019-01-15T01:02:06.842Z,1000.97
2019-01-15T01:12:06.906Z,1000.95
2019-01-15T01:22:06.857Z,1001.08
2019-01-15T01:32:06.944Z,1000.97
2019-01-15T01:42:06.952Z,1001.03
2019-01-15T01:52:07.353Z,1001.14
2019-01-15T02:02:06.871Z,1000.99
2019-01-15T02:12:06.894Z,1001.00
2019-01-15T02:22:07.774Z,1001.10
2019-01-15T02:32:06.919Z,1001.24
2019-01-15T02:42:06.978Z,1001.18
2019-01-15T02:52:06.840Z,1001.00
2019-01-15T03:02:06.978Z,1000.98
2019-01-15T03:12:06.926Z,1000.80
2019-01-15T03:22:06.875Z,1000.94
2019-01-15T03:32:06.857Z,1000.68
2019-01-15T03:42:06.939Z,1000.58
2019-01-15T03:52:06.774Z,1000.50
2019-01-15T04:02:06.796Z,1000.40
2019-01-15T04:12:07.500Z,1000.36
2019-01-15T04:22:06.883Z,1000.42
2019-01-15T04:32:06.911Z,1000.40
2019-01-15T04:42:06.855Z,1000.22
2019-01-15T04:52:06.809Z,1000.07
2019-01-15T05:02:06.907Z,999.92
2019-01-15T05:12:06.780Z,999.91
2019-01-15T05:22:06.837Z,999.86
2019-01-15T05:32:06.841Z,999.76
2019-01-15T05:42:06.965Z,999.86
2019-01-15T05:52:06.813Z,999.78
2019-01-15T06:02:06.895Z,999.68
2019-01-15T06:12:07.334Z,999.61
2019-01-15T06:22:06.998Z,999.65
2019-01-15T06:32:06.844Z,999.55
2019-01-15T06:42:06.807Z,999.58
2019-01-15T06:52:07.558Z,999.64
2019-01-15T07:02:06.874Z,999.56
2019-01-15T07:12:06.838Z,999.57
2019-01-15T07:22:06.944Z,999.61
2019-01-15T07:32:06.774Z,999.70
2019-01-15T07:42:07.837Z,999.76
2019-01-15T07:52:08.930Z,999.74
2019-01-15T08:02:06.834Z,999.68
2019-01-15T08:12:07.052Z,999.77
2019-01-15T08:22:06.840Z,999.80
2019-01-15T08:32:06.772Z,999.79
2019-01-15T08:42:07.176Z,999.82
2019-01-15T08:52:14.036Z,999.81
2019-01-15T09:02:06.868Z,999.63
2019-01-15T09:12:06.758Z,999.61
2019-01-15T09:22:06.750Z,999.57
2019-01-15T09:32:06.762Z,999.63
2019-01-15T09:42:06.777Z,999.68
2019-01-15T09:52:13.050Z,999.69
2019-01-15T10:02:06.977Z,999.63
2019-01-15T10:12:06.997Z,999.51
2019-01-15T10:22:06.803Z,999.56
2019-01-15T10:32:06.785Z,999.47
2019-01-15T10:42:06.764Z,999.38
2019-01-15T10:52:07.095Z,999.26
2019-01-15T11:02:06.736Z,999.26
2019-01-15T11:12:06.804Z,999.04
2019-01-15T11:22:07.701Z,998.83
2019-01-15T11:32:06.795Z,998.93
2019-01-15T11:42:07.239Z,998.76
2019-01-15T11:52:06.740Z,998.69
2019-01-15T12:02:07.439Z,998.66
2019-01-15T12:12:06.759Z,998.69
2019-01-15T12:22:06.977Z,998.43
2019-01-15T12:32:06.983Z,998.51
2019-01-15T12:42:06.766Z,998.60
2019-01-15T12:52:07.366Z,998.50
2019-01-15T13:02:06.914Z,998.49
2019-01-15T13:12:06.898Z,998.35
2019-01-15T13:22:06.763Z,998.23
2019-01-15T13:32:06.782Z,998.34
2019-01-15T13:42:06.886Z,998.22
2019-01-15T13:52:07.105Z,998.01
2019-01-15T14:02:06.889Z,997.98
2019-01-15T14:12:07.089Z,998.03
2019-01-15T14:22:06.765Z,997.92
2019-01-15T14:32:06.720Z,997.88
2019-01-15T14:42:08.129Z,997.94
2019-01-15T14:52:06.753Z,997.92
2019-01-15T15:02:06.759Z,997.88
2019-01-15T15:12:06.886Z,997.90
2019-01-15T15:22:06.829Z,997.93
2019-01-15T15:32:06.680Z,997.95
2019-01-15T15:42:06.826Z,997.85
2019-01-15T15:52:06.725Z,997.73
2019-01-15T16:02:06.964Z,997.82
2019-01-15T16:12:10.896Z,997.84
2019-01-15T16:22:07.702Z,997.67
2019-01-15T16:32:06.768Z,997.79
2019-01-15T16:42:06.718Z,997.63
2019-01-15T16:52:07.326Z,997.67
2019-01-15T17:02:07.824Z,997.58
2019-01-15T17:12:06.759Z,997.60
2019-01-15T17:22:06.679Z,997.69
2019-01-15T17:32:06.715Z,997.58
2019-01-15T17:42:06.744Z,997.62
2019-01-15T17:52:06.882Z,997.69
2019-01-15T18:02:06.974Z,997.76
2019-01-15T18:12:06.894Z,997.66
2019-01-15T18:22:06.759Z,997.51
2019-01-15T18:32:06.642Z,997.46
2019-01-15T18:42:06.777Z,997.50
2019-01-15T18:52:06.717Z,997.45
2019-01-15T19:02:06.678Z,997.51
2019-01-15T19:12:06.703Z,997.40
2019-01-15T19:22:06.708Z,997.30
2019-01-15T19:32:07.499Z,997.32
2019-01-15T19:42:09.619Z,997.14
2019-01-15T19:52:06.663Z,997.02
2019-01-15T20:02:06.713Z,997.06
2019-01-15T20:12:06.748Z,997.16
2019-01-15T20:22:06.725Z,997.04
2019-01-15T20:32:07.238Z,997.05
2019-01-15T20:42:06.744Z,996.97
2019-01-15T20:52:06.738Z,997.03
2019-01-15T21:02:06.711Z,996.87
2019-01-15T21:12:06.610Z,996.94
2019-01-15T21:22:06.674Z,996.87
2019-01-15T21:32:07.620Z,996.83
2019-01-15T21:42:06.709Z,996.82
2019-01-15T21:52:06.712Z,996.83
2019-01-15T22:02:06.590Z,996.71
2019-01-15T22:12:06.586Z,996.67
2019-01-15T22:22:06.641Z,996.72
2019-01-15T22:32:06.632Z,996.51
2019-01-15T22:42:06.597Z,996.39
2019-01-15T22:52:06.603Z,996.18
2019-01-15T23:02:06.659Z,996.22
2019-01-15T23:12:08.360Z,996.16
2019-01-15T23:22:06.722Z,996.06
2019-01-15T23:32:06.751Z,996.10
2019-01-15T23:42:06.641Z,995.88
2019-01-15T23:52:06.682Z,995.83
